createdAt,value
2019-05-07T00:02:16.092Z,81.29
2019-05-07T00:04:46.457Z,81.30
2019-05-07T00:07:16.715Z,81.54
2019-05-07T00:37:07.299Z,83.09
2019-05-07T00:40:15.508Z,84.36
2019-05-07T00:43:09.211Z,84.73
2019-05-07T00:46:22.595Z,85.20
2019-05-07T00:49:02.261Z,85.13
2019-05-07T00:51:52.248Z,85.18
2019-05-07T00:54:42.320Z,85.69
2019-05-07T00:57:34.186Z,86.03
2019-05-07T01:00:06.954Z,86.62
2019-05-07T01:03:02.911Z,86.73
2019-05-07T01:05:52.753Z,86.27
2019-05-07T01:09:03.175Z,86.60
2019-05-07T01:11:35.240Z,86.76
2019-05-07T01:14:26.007Z,87.51
2019-05-07T01:16:56.238Z,87.23
2019-05-07T01:19:45.814Z,87.62
2019-05-07T01:22:35.082Z,87.59
2019-05-07T01:25:05.865Z,87.43
2019-05-07T01:27:40.089Z,87.34
2019-05-07T01:30:29.407Z,87.78
2019-05-07T01:36:02.316Z,87.85
2019-05-07T01:38:52.234Z,87.74
2019-05-07T01:41:42.075Z,87.78
2019-05-07T01:44:32.537Z,87.92
2019-05-07T01:47:03.741Z,87.81
2019-05-07T01:49:35.094Z,87.91
2019-05-07T01:54:55.409Z,88.55
2019-05-07T01:57:25.768Z,88.29
2019-05-07T01:59:56.538Z,89.09
2019-05-07T02:02:38.395Z,89.06
2019-05-07T02:05:27.775Z,89.29
2019-05-07T02:11:12.882Z,89.17
2019-05-07T02:14:02.452Z,89.43
2019-05-07T02:16:52.900Z,89.29
2019-05-07T02:19:43.050Z,89.42
2019-05-07T02:22:32.491Z,89.59
2019-05-07T02:25:22.263Z,89.65
2019-05-07T02:28:12.844Z,89.27
2019-05-07T02:31:04.137Z,89.03
2019-05-07T02:33:35.133Z,88.78
2019-05-07T02:39:33.264Z,88.65
2019-05-07T02:42:04.060Z,88.65
2019-05-07T02:45:13.324Z,89.04
2019-05-07T02:47:44.015Z,89.66
2019-05-07T02:53:43.118Z,91.02
2019-05-07T02:56:33.451Z,91.46
2019-05-07T02:59:44.026Z,91.65
2019-05-07T03:02:25.669Z,92.25
2019-05-07T03:05:06.915Z,92.24
2019-05-07T03:07:53.223Z,92.33
2019-05-07T03:10:34.619Z,92.04
2019-05-07T03:13:17.106Z,92.14
2019-05-07T03:15:58.512Z,92.49
2019-05-07T03:18:43.539Z,92.62
2019-05-07T03:21:23.915Z,92.44
2019-05-07T03:24:14.831Z,92.51
2019-05-07T03:26:46.452Z,92.51
2019-05-07T03:29:37.382Z,92.82
2019-05-07T03:32:27.806Z,92.86
2019-05-07T03:35:38.102Z,92.62
2019-05-07T03:38:27.519Z,92.43
2019-05-07T03:41:18.753Z,92.79
2019-05-07T03:43:53.437Z,92.96
2019-05-07T03:46:23.799Z,92.20
2019-05-07T03:48:54.354Z,92.16
2019-05-07T03:51:24.631Z,92.39
2019-05-07T03:53:54.886Z,92.34
2019-05-07T03:56:25.521Z,92.11
2019-05-07T03:59:14.945Z,91.96
2019-05-07T04:01:45.281Z,92.17
2019-05-07T04:04:16.473Z,91.83
2019-05-07T04:06:49.039Z,91.13
2019-05-07T04:09:38.328Z,90.98
2019-05-07T04:12:08.804Z,90.70
2019-05-07T04:14:58.108Z,90.93
2019-05-07T04:17:47.402Z,90.66
2019-05-07T04:20:18.209Z,91.00
2019-05-07T04:23:07.487Z,90.99
2019-05-07T04:28:54.128Z,90.94
2019-05-07T04:31:37.000Z,90.75
2019-05-07T04:34:45.568Z,90.61
2019-05-07T04:37:34.765Z,90.11
2019-05-07T04:40:05.143Z,89.60
2019-05-07T04:42:54.401Z,89.07
2019-05-07T04:45:24.651Z,89.14
2019-05-07T04:48:14.475Z,88.33
2019-05-07T04:54:03.291Z,88.43
2019-05-07T04:56:53.147Z,88.52
2019-05-07T04:59:43.103Z,88.83
2019-05-07T05:05:12.691Z,88.29
2019-05-07T05:07:43.179Z,88.16
2019-05-07T05:10:22.693Z,87.62
2019-05-07T05:13:12.934Z,87.77
2019-05-07T05:16:03.757Z,87.18
2019-05-07T05:18:53.486Z,86.75
2019-05-07T05:21:42.689Z,87.69
2019-05-07T05:24:37.645Z,86.96
2019-05-07T05:27:30.037Z,86.48
2019-05-07T05:29:59.676Z,85.56
2019-05-07T05:32:32.438Z,85.59
2019-05-07T05:35:08.568Z,84.75
2019-05-07T05:38:22.273Z,84.30
2019-05-07T05:41:16.698Z,84.23
2019-05-07T05:47:16.404Z,82.30
2019-05-07T05:56:22.887Z,80.54
2019-05-07T05:59:47.434Z,79.65
2019-05-07T06:02:44.026Z,77.84
2019-05-07T06:05:34.428Z,77.08
2019-05-07T06:08:24.094Z,71.79
2019-05-07T06:11:33.636Z,71.14
2019-05-07T06:14:23.058Z,70.74
2019-05-07T06:17:13.545Z,70.28
2019-05-07T06:20:12.144Z,69.61
2019-05-07T06:23:02.977Z,68.74
2019-05-07T06:25:33.571Z,68.50
2019-05-07T06:28:10.037Z,66.65
2019-05-07T06:30:59.346Z,67.06
2019-05-07T06:33:52.316Z,68.00
2019-05-07T06:36:22.965Z,66.97
2019-05-07T06:45:24.570Z,65.31
2019-05-07T06:51:25.289Z,64.54
2019-05-07T06:54:19.586Z,63.12
2019-05-07T06:56:51.910Z,62.31
2019-05-07T07:02:29.001Z,59.37
2019-05-07T07:05:18.133Z,59.26
2019-05-07T07:07:58.552Z,58.19
2019-05-07T07:11:09.811Z,58.47
2019-05-07T07:13:42.665Z,56.61
2019-05-07T07:16:23.494Z,56.65
2019-05-07T07:18:55.801Z,56.19
2019-05-07T07:21:25.903Z,55.01
2019-05-07T07:23:56.491Z,55.26
2019-05-07T07:32:13.175Z,51.47
2019-05-07T07:37:58.954Z,49.81
2019-05-07T07:40:52.776Z,50.09
2019-05-07T07:43:42.471Z,51.25
2019-05-07T07:46:16.675Z,50.49
2019-05-07T07:49:11.279Z,49.99
2019-05-07T07:51:57.586Z,48.95
2019-05-07T07:54:47.866Z,48.35
2019-05-07T07:57:37.011Z,48.28
2019-05-07T08:00:29.961Z,47.85
2019-05-07T08:05:39.440Z,45.86
2019-05-07T08:08:28.723Z,44.84
2019-05-07T08:11:39.787Z,43.85
2019-05-07T08:14:29.082Z,45.63
2019-05-07T08:17:02.252Z,44.10
2019-05-07T08:19:32.933Z,45.62
2019-05-07T08:22:28.803Z,41.43
2019-05-07T08:25:18.303Z,39.22
2019-05-07T08:28:23.181Z,39.09
2019-05-07T08:31:19.983Z,36.90
2019-05-07T08:33:59.268Z,34.88
2019-05-07T08:36:29.490Z,33.30
2019-05-07T08:38:59.884Z,33.23
2019-05-07T08:41:49.213Z,30.53
2019-05-07T08:44:57.407Z,28.67
2019-05-07T08:47:49.906Z,27.98
2019-05-07T08:50:48.820Z,30.15
2019-05-07T08:53:23.805Z,29.50
2019-05-07T08:55:54.329Z,29.94
2019-05-07T08:58:43.767Z,30.69
2019-05-07T09:01:33.292Z,32.71
2019-05-07T09:04:14.968Z,35.97
2019-05-07T09:06:59.463Z,38.78
2019-05-07T09:09:39.648Z,37.21
2019-05-07T09:15:59.107Z,36.55
2019-05-07T09:18:52.401Z,35.84
2019-05-07T09:21:42.910Z,34.75
2019-05-07T09:24:13.255Z,36.78
2019-05-07T09:27:02.906Z,39.67
2019-05-07T09:30:12.834Z,38.98
2019-05-07T09:35:52.952Z,37.23
2019-05-07T09:38:23.314Z,36.29
2019-05-07T09:40:56.870Z,37.04
2019-05-07T09:43:48.489Z,37.75
2019-05-07T09:46:16.965Z,36.38
2019-05-07T09:49:06.357Z,36.83
2019-05-07T09:51:55.587Z,32.83
2019-05-07T09:54:26.480Z,30.86
2019-05-07T09:57:27.325Z,30.04
2019-05-07T09:59:48.054Z,29.90
2019-05-07T10:02:18.313Z,28.00
2019-05-07T10:04:52.713Z,29.92
2019-05-07T10:07:23.995Z,31.34
2019-05-07T10:10:13.821Z,30.54
2019-05-07T10:13:42.005Z,29.35
2019-05-07T10:16:41.839Z,25.64
2019-05-07T10:22:08.674Z,30.98
2019-05-07T10:25:02.938Z,30.30
2019-05-07T10:28:12.523Z,30.20
2019-05-07T10:34:04.450Z,32.20
2019-05-07T10:36:46.091Z,33.45
2019-05-07T10:39:35.097Z,34.40
2019-05-07T10:42:28.816Z,34.29
2019-05-07T10:45:33.391Z,33.21
2019-05-07T10:48:32.047Z,34.85
2019-05-07T10:51:21.792Z,34.77
2019-05-07T10:57:19.858Z,33.76
2019-05-07T11:02:54.544Z,34.52
2019-05-07T11:05:36.098Z,35.12
2019-05-07T11:08:18.288Z,34.33
2019-05-07T11:11:00.314Z,36.55
2019-05-07T11:13:42.366Z,36.28
2019-05-07T11:16:26.006Z,35.85
2019-05-07T11:19:12.773Z,36.67
2019-05-07T11:21:54.956Z,36.15
2019-05-07T11:24:36.241Z,34.27
2019-05-07T11:27:16.393Z,32.66
2019-05-07T11:30:07.374Z,32.24
2019-05-07T11:32:39.768Z,32.72
2019-05-07T11:35:31.929Z,31.75
2019-05-07T11:38:24.982Z,31.22
2019-05-07T11:40:57.252Z,31.99
2019-05-07T11:44:05.445Z,35.11
2019-05-07T11:47:13.948Z,29.39
2019-05-07T11:50:25.524Z,29.34
2019-05-07T11:56:28.394Z,27.50
2019-05-07T11:59:22.018Z,28.51
2019-05-07T12:02:12.113Z,26.98
2019-05-07T12:05:22.561Z,28.53
2019-05-07T12:08:14.329Z,26.62
2019-05-07T12:11:03.577Z,28.11
2019-05-07T12:13:57.029Z,30.16
2019-05-07T12:16:43.911Z,29.33
2019-05-07T12:19:36.052Z,28.81
2019-05-07T12:25:19.500Z,30.00
2019-05-07T12:28:08.940Z,29.78
2019-05-07T12:30:58.510Z,30.54
2019-05-07T12:34:11.924Z,29.27
2019-05-07T12:37:01.678Z,29.09
2019-05-07T12:39:32.468Z,30.15
2019-05-07T12:42:08.549Z,30.71
2019-05-07T12:45:02.845Z,30.58
2019-05-07T12:47:53.012Z,31.24
2019-05-07T12:50:43.639Z,31.29
2019-05-07T12:53:52.464Z,31.06
2019-05-07T12:57:02.533Z,29.58
2019-05-07T12:59:54.049Z,28.68
2019-05-07T13:05:59.527Z,28.79
2019-05-07T13:08:43.242Z,30.03
2019-05-07T13:11:13.853Z,31.37
2019-05-07T13:13:44.161Z,30.41
2019-05-07T13:16:36.381Z,28.92
2019-05-07T13:23:17.491Z,23.31
2019-05-07T13:25:28.173Z,22.67
2019-05-07T13:28:18.162Z,21.26
2019-05-07T13:30:52.639Z,20.01
2019-05-07T13:33:23.879Z,19.13
2019-05-07T13:36:13.191Z,17.57
2019-05-07T13:39:05.108Z,17.08
2019-05-07T13:42:13.609Z,17.39
2019-05-07T13:45:22.454Z,17.22
2019-05-07T13:48:14.192Z,18.00
2019-05-07T13:50:48.673Z,15.83
2019-05-07T13:53:56.865Z,17.78
2019-05-07T13:56:48.890Z,19.83
2019-05-07T13:59:19.173Z,20.23
2019-05-07T14:02:25.823Z,21.85
2019-05-07T14:04:56.989Z,23.32
2019-05-07T14:07:43.054Z,24.04
2019-05-07T14:10:03.931Z,25.59
2019-05-07T14:12:37.089Z,27.27
2019-05-07T14:15:28.089Z,25.87
2019-05-07T14:18:18.937Z,23.94
2019-05-07T14:21:26.987Z,21.27
2019-05-07T14:23:57.270Z,20.28
2019-05-07T14:29:57.283Z,23.43
2019-05-07T14:32:46.494Z,21.55
2019-05-07T14:35:39.100Z,21.67
2019-05-07T14:38:52.093Z,18.62
2019-05-07T14:42:04.469Z,17.21
2019-05-07T14:45:05.886Z,16.68
2019-05-07T14:47:45.287Z,16.52
2019-05-07T14:53:24.853Z,21.81
2019-05-07T14:56:14.939Z,24.36
2019-05-07T15:02:03.639Z,21.48
2019-05-07T15:04:53.096Z,21.21
2019-05-07T15:07:23.887Z,20.34
2019-05-07T15:10:13.296Z,19.57
2019-05-07T15:13:07.800Z,18.98
2019-05-07T15:15:57.226Z,18.25
2019-05-07T15:19:05.447Z,18.09
2019-05-07T15:22:13.658Z,16.26
2019-05-07T15:25:02.888Z,18.57
2019-05-07T15:27:34.134Z,15.87
2019-05-07T15:33:44.880Z,17.28
2019-05-07T15:36:34.999Z,18.55
2019-05-07T15:39:24.396Z,17.97
2019-05-07T15:42:13.701Z,18.28
2019-05-07T15:45:04.762Z,18.16
2019-05-07T15:47:56.180Z,16.17
2019-05-07T15:53:55.007Z,17.77
2019-05-07T15:56:47.443Z,18.54
2019-05-07T15:59:36.815Z,18.92
2019-05-07T16:02:35.923Z,20.69
2019-05-07T16:07:57.282Z,23.36
2019-05-07T16:10:38.968Z,24.47
2019-05-07T16:13:39.112Z,24.81
2019-05-07T16:16:02.111Z,26.23
2019-05-07T16:19:12.635Z,27.85
2019-05-07T16:21:43.873Z,27.93
2019-05-07T16:24:33.477Z,28.19
2019-05-07T16:27:25.746Z,28.21
2019-05-07T16:36:15.774Z,28.58
2019-05-07T16:39:06.049Z,30.96
2019-05-07T16:41:57.098Z,32.23
2019-05-07T16:44:47.079Z,29.01
2019-05-07T16:47:39.534Z,31.66
2019-05-07T16:50:28.822Z,33.88
2019-05-07T16:53:37.143Z,32.29
2019-05-07T16:56:26.796Z,31.21
2019-05-07T17:05:15.292Z,32.49
2019-05-07T17:11:05.853Z,33.37
2019-05-07T17:13:55.414Z,33.33
2019-05-07T17:16:26.145Z,32.35
2019-05-07T17:19:17.967Z,32.64
2019-05-07T17:21:48.676Z,33.07
2019-05-07T17:24:19.051Z,32.79
2019-05-07T17:26:51.839Z,33.68
2019-05-07T17:29:49.140Z,34.45
2019-05-07T17:32:41.914Z,33.63
2019-05-07T17:38:09.889Z,34.38
2019-05-07T17:40:39.176Z,35.13
2019-05-07T17:43:12.320Z,36.39
2019-05-07T17:45:43.124Z,35.17
2019-05-07T17:52:15.734Z,36.34
2019-05-07T17:54:50.282Z,36.43
2019-05-07T17:57:44.821Z,36.68
2019-05-07T18:00:35.637Z,37.94
2019-05-07T18:03:35.602Z,38.46
2019-05-07T18:06:34.782Z,39.00
2019-05-07T18:09:24.114Z,38.64
2019-05-07T18:11:56.547Z,40.03
2019-05-07T18:14:49.858Z,40.68
2019-05-07T18:17:42.069Z,40.34
2019-05-07T18:20:32.812Z,40.70
2019-05-07T18:23:16.677Z,40.45
2019-05-07T18:25:44.461Z,40.31
2019-05-07T18:28:17.916Z,40.40
2019-05-07T18:30:54.735Z,40.27
2019-05-07T18:33:41.752Z,40.72
2019-05-07T18:36:12.599Z,41.50
2019-05-07T18:38:44.618Z,41.94
2019-05-07T18:41:17.703Z,41.83
2019-05-07T18:43:52.071Z,42.11
2019-05-07T18:46:24.197Z,42.87
2019-05-07T18:48:55.625Z,42.92
2019-05-07T18:51:32.194Z,43.79
2019-05-07T18:54:02.730Z,44.26
2019-05-07T18:56:52.876Z,45.49
2019-05-07T18:59:43.451Z,46.86
2019-05-07T19:02:16.991Z,48.26
2019-05-07T19:04:47.601Z,47.49
2019-05-07T19:07:22.817Z,49.69
2019-05-07T19:10:35.140Z,47.99
2019-05-07T19:13:33.749Z,47.56
2019-05-07T19:16:27.631Z,52.85
2019-05-07T19:19:16.766Z,53.34
2019-05-07T19:22:06.228Z,51.12
2019-05-07T19:28:12.759Z,51.97
2019-05-07T19:30:43.940Z,52.18
2019-05-07T19:33:33.191Z,52.17
2019-05-07T19:36:22.517Z,52.79
2019-05-07T19:39:12.635Z,52.88
2019-05-07T19:42:06.292Z,53.37
2019-05-07T19:48:00.091Z,54.10
2019-05-07T19:51:08.412Z,55.02
2019-05-07T19:53:43.823Z,55.51
2019-05-07T19:56:33.462Z,55.64
2019-05-07T19:59:09.266Z,56.13
2019-05-07T20:01:44.750Z,55.86
2019-05-07T20:04:15.142Z,56.03
2019-05-07T20:07:07.930Z,56.13
2019-05-07T20:09:49.512Z,57.10
2019-05-07T20:12:33.597Z,56.53
2019-05-07T20:15:06.838Z,57.03
2019-05-07T20:17:42.164Z,58.89
2019-05-07T20:20:36.696Z,58.25
2019-05-07T20:26:36.045Z,59.38
2019-05-07T20:29:27.233Z,59.39
2019-05-07T20:32:04.247Z,59.48
2019-05-07T20:34:53.622Z,59.97
2019-05-07T20:38:16.240Z,60.46
2019-05-07T20:40:55.784Z,60.65
2019-05-07T20:43:28.180Z,61.06
2019-05-07T20:46:20.577Z,61.71
2019-05-07T20:48:52.609Z,62.29
2019-05-07T20:51:52.777Z,62.20
2019-05-07T20:54:46.049Z,62.56
2019-05-07T20:57:39.256Z,62.97
2019-05-07T21:00:29.782Z,63.60
2019-05-07T21:05:55.049Z,63.52
2019-05-07T21:08:25.936Z,62.86
2019-05-07T21:11:17.936Z,63.30
2019-05-07T21:13:52.333Z,63.91
2019-05-07T21:16:42.538Z,64.44
2019-05-07T21:19:33.088Z,64.80
2019-05-07T21:22:23.346Z,64.63
2019-05-07T21:25:41.495Z,64.74
2019-05-07T21:27:52.886Z,65.23
2019-05-07T21:30:42.689Z,65.43
2019-05-07T21:36:05.122Z,65.66
2019-05-07T21:39:02.160Z,65.81
2019-05-07T21:41:55.121Z,66.23
2019-05-07T21:44:44.971Z,66.67
2019-05-07T21:50:56.525Z,67.03
2019-05-07T21:59:43.200Z,67.46
2019-05-07T22:02:17.832Z,67.42
2019-05-07T22:05:11.781Z,67.95
2019-05-07T22:08:01.823Z,68.27
2019-05-07T22:10:51.500Z,69.23
2019-05-07T22:13:43.479Z,69.12
2019-05-07T22:16:37.163Z,69.40
2019-05-07T22:19:26.719Z,70.50
2019-05-07T22:22:38.479Z,70.77
2019-05-07T22:25:46.704Z,70.83
2019-05-07T22:28:17.193Z,70.99
2019-05-07T22:34:02.200Z,71.74
2019-05-07T22:36:52.117Z,72.02
2019-05-07T22:39:43.816Z,72.29
2019-05-07T22:42:53.671Z,72.26
2019-05-07T22:45:42.994Z,71.98
2019-05-07T22:48:32.587Z,72.27
2019-05-07T22:52:02.188Z,72.14
2019-05-07T22:54:32.185Z,72.47
2019-05-07T22:57:42.044Z,72.84
2019-05-07T23:00:51.223Z,72.99
2019-05-07T23:03:23.186Z,72.98
2019-05-07T23:06:13.634Z,72.68
2019-05-07T23:08:45.054Z,72.54
2019-05-07T23:11:37.124Z,72.97
2019-05-07T23:14:13.988Z,73.31
2019-05-07T23:17:22.052Z,73.90
2019-05-07T23:26:00.391Z,73.31
2019-05-07T23:28:32.325Z,73.56
2019-05-07T23:31:22.900Z,73.25
2019-05-07T23:34:32.724Z,73.82
2019-05-07T23:41:14.777Z,74.43
2019-05-07T23:44:04.291Z,73.87
2019-05-07T23:50:23.960Z,73.83
2019-05-07T23:58:48.254Z,75.12
